createdAt,value
2022-08-01T00:00:56.415Z,19.35
2022-08-01T00:03:26.112Z,19.35
2022-08-01T00:05:53.678Z,19.38
2022-08-01T00:08:24.274Z,19.41
2022-08-01T00:10:54.049Z,19.36
2022-08-01T00:13:21.623Z,19.40
2022-08-01T00:15:53.731Z,19.38
2022-08-01T00:18:22.241Z,19.44
2022-08-01T00:20:49.902Z,19.46
2022-08-01T00:23:17.415Z,19.40
2022-08-01T00:25:44.965Z,19.35
2022-08-01T00:28:14.528Z,19.32
2022-08-01T00:30:42.004Z,19.31
2022-08-01T00:33:09.486Z,19.29
2022-08-01T00:35:37.008Z,19.20
2022-08-01T00:38:04.547Z,19.26
2022-08-01T00:40:32.164Z,19.17
2022-08-01T00:42:59.675Z,19.25
2022-08-01T00:45:27.387Z,19.23
2022-08-01T00:47:55.554Z,19.20
2022-08-01T00:50:24.875Z,19.21
2022-08-01T00:52:52.934Z,19.20
2022-08-01T00:55:21.546Z,19.16
2022-08-01T00:58:04.617Z,19.12
2022-08-01T01:00:52.065Z,19.19
2022-08-01T01:03:26.368Z,19.13
2022-08-01T01:06:18.580Z,19.06
2022-08-01T01:09:10.394Z,19.14
2022-08-01T01:12:11.680Z,19.12
2022-08-01T01:14:58.007Z,19.08
2022-08-01T01:17:50.999Z,18.95
2022-08-01T01:20:22.719Z,18.97
2022-08-01T01:23:08.239Z,19.00
2022-08-01T01:25:38.635Z,18.91
2022-08-01T01:28:08.912Z,18.89
2022-08-01T01:30:40.028Z,18.84
2022-08-01T01:33:11.703Z,18.87
2022-08-01T01:35:52.915Z,18.82
2022-08-01T01:38:27.395Z,18.83
2022-08-01T01:40:58.749Z,18.85
2022-08-01T01:43:28.761Z,18.82
2022-08-01T01:46:03.726Z,18.78
2022-08-01T01:48:33.794Z,18.75
2022-08-01T01:51:02.390Z,18.73
2022-08-01T01:53:33.184Z,18.77
2022-08-01T01:56:02.841Z,18.81
2022-08-01T01:58:34.204Z,18.80
2022-08-01T02:01:03.717Z,18.85
2022-08-01T02:03:33.428Z,18.87
2022-08-01T02:06:02.735Z,18.83
2022-08-01T02:08:32.370Z,18.79
2022-08-01T02:11:21.852Z,18.83
2022-08-01T02:14:00.546Z,18.95
2022-08-01T02:16:32.789Z,18.91
2022-08-01T02:19:00.993Z,18.95
2022-08-01T02:21:42.601Z,18.92
2022-08-01T02:24:32.946Z,18.93
2022-08-01T02:27:05.198Z,18.82
2022-08-01T02:29:56.347Z,19.00
2022-08-01T02:32:58.354Z,18.94
2022-08-01T02:35:29.683Z,18.92
2022-08-01T02:37:59.690Z,19.01
2022-08-01T02:40:29.372Z,19.26
2022-08-01T02:42:59.159Z,19.57
2022-08-01T02:45:28.306Z,19.61
2022-08-01T02:48:00.595Z,19.66
2022-08-01T02:50:30.944Z,19.67
2022-08-01T02:52:59.916Z,19.68
2022-08-01T02:55:30.108Z,19.66
2022-08-01T02:58:00.966Z,19.67
2022-08-01T03:00:31.004Z,19.80
2022-08-01T03:03:00.823Z,19.97
2022-08-01T03:05:29.191Z,19.99
2022-08-01T03:08:02.790Z,20.01
2022-08-01T03:10:33.227Z,19.99
2022-08-01T03:13:02.567Z,19.97
2022-08-01T03:15:33.241Z,20.02
2022-08-01T03:18:02.168Z,20.07
2022-08-01T03:20:32.222Z,20.10
2022-08-01T03:23:02.693Z,20.18
2022-08-01T03:25:36.603Z,20.22
2022-08-01T03:28:05.902Z,20.17
2022-08-01T03:30:36.806Z,20.26
2022-08-01T03:33:04.694Z,20.31
2022-08-01T03:35:45.005Z,20.43
2022-08-01T03:38:18.228Z,20.43
2022-08-01T03:40:51.016Z,20.54
2022-08-01T03:43:58.712Z,20.77
2022-08-01T03:46:48.752Z,20.86
2022-08-01T03:49:21.250Z,20.85
2022-08-01T03:51:51.139Z,20.85
2022-08-01T03:54:22.820Z,20.92
2022-08-01T03:56:52.550Z,20.92
2022-08-01T03:59:21.605Z,21.03
2022-08-01T04:01:50.045Z,21.14
2022-08-01T04:04:17.654Z,21.15
2022-08-01T04:06:46.043Z,21.26
2022-08-01T04:09:14.078Z,21.24
2022-08-01T04:11:44.669Z,21.36
2022-08-01T04:14:12.277Z,21.43
2022-08-01T04:16:39.875Z,21.42
2022-08-01T04:19:08.687Z,21.44
2022-08-01T04:21:37.019Z,21.43
2022-08-01T04:24:14.719Z,21.46
2022-08-01T04:26:45.338Z,21.41
2022-08-01T04:29:15.286Z,21.49
2022-08-01T04:31:46.421Z,21.54
2022-08-01T04:34:17.164Z,21.60
2022-08-01T04:36:46.977Z,21.64
2022-08-01T04:39:16.578Z,21.65
2022-08-01T04:41:47.747Z,21.74
2022-08-01T04:44:15.704Z,21.87
2022-08-01T04:46:44.818Z,21.93
2022-08-01T04:49:12.916Z,22.04
2022-08-01T04:51:52.085Z,22.21
2022-08-01T04:54:19.840Z,22.24
2022-08-01T04:56:47.321Z,22.29
2022-08-01T04:59:37.864Z,22.34
2022-08-01T05:02:05.856Z,22.37
2022-08-01T05:04:33.643Z,22.37
2022-08-01T05:07:01.333Z,22.45
2022-08-01T05:09:31.205Z,22.50
2022-08-01T05:12:04.863Z,22.44
2022-08-01T05:14:33.581Z,22.45
2022-08-01T05:17:06.294Z,22.46
2022-08-01T05:19:35.174Z,22.53
2022-08-01T05:22:05.972Z,22.52
2022-08-01T05:24:35.168Z,22.64
2022-08-01T05:27:04.683Z,22.76
2022-08-01T05:29:32.514Z,22.96
2022-08-01T05:32:00.682Z,23.14
2022-08-01T05:34:28.720Z,23.11
2022-08-01T05:36:57.937Z,23.16
2022-08-01T05:39:25.693Z,23.24
2022-08-01T05:41:58.043Z,23.46
2022-08-01T05:44:28.766Z,23.55
2022-08-01T05:46:56.411Z,23.69
2022-08-01T05:49:26.504Z,23.77
2022-08-01T05:51:54.046Z,23.77
2022-08-01T05:54:21.529Z,23.74
2022-08-01T05:56:49.144Z,23.70
2022-08-01T05:59:18.968Z,23.75
2022-08-01T06:01:46.551Z,23.88
2022-08-01T06:04:14.301Z,24.16
2022-08-01T06:06:41.775Z,24.39
2022-08-01T06:09:09.363Z,24.60
2022-08-01T06:11:36.846Z,24.95
2022-08-01T06:14:04.500Z,25.16
2022-08-01T06:16:32.062Z,25.39
2022-08-01T06:18:59.570Z,25.57
2022-08-01T06:21:27.140Z,25.78
2022-08-01T06:23:54.652Z,25.90
2022-08-01T06:26:22.258Z,25.97
2022-08-01T06:28:49.773Z,26.02
2022-08-01T06:31:17.356Z,25.89
2022-08-01T06:33:44.818Z,25.83
2022-08-01T06:36:12.434Z,26.02
2022-08-01T06:38:39.905Z,26.00
2022-08-01T06:41:07.363Z,26.05
2022-08-01T06:43:35.110Z,26.11
2022-08-01T06:46:02.653Z,25.92
2022-08-01T06:48:32.322Z,26.04
2022-08-01T06:51:09.258Z,26.21
2022-08-01T06:53:38.281Z,26.49
2022-08-01T06:56:07.263Z,26.67
2022-08-01T06:58:35.735Z,26.79
2022-08-01T07:01:07.148Z,26.87
2022-08-01T07:03:52.785Z,27.06
2022-08-01T07:06:25.883Z,27.27
2022-08-01T07:08:54.231Z,27.59
2022-08-01T07:11:23.497Z,27.93
2022-08-01T07:13:51.263Z,28.35
2022-08-01T07:16:19.171Z,28.65
2022-08-01T07:18:46.747Z,28.93
2022-08-01T07:21:38.911Z,29.02
2022-08-01T07:24:02.066Z,29.18
2022-08-01T07:26:52.223Z,28.77
2022-08-01T07:29:25.855Z,28.81
2022-08-01T07:31:56.029Z,29.07
2022-08-01T07:34:24.854Z,29.21
2022-08-01T07:36:53.280Z,29.53
2022-08-01T07:39:20.891Z,29.74
2022-08-01T07:42:05.910Z,29.95
2022-08-01T07:44:36.640Z,30.08
2022-08-01T07:47:06.455Z,30.31
2022-08-01T07:49:39.439Z,30.62
2022-08-01T07:52:08.949Z,30.76
2022-08-01T07:54:36.824Z,30.60
2022-08-01T07:57:04.783Z,30.58
2022-08-01T07:59:32.384Z,30.71
2022-08-01T08:02:00.291Z,30.94
2022-08-01T08:04:29.107Z,31.31
2022-08-01T08:06:56.819Z,31.40
2022-08-01T08:09:24.351Z,31.87
2022-08-01T08:11:51.985Z,32.24
2022-08-01T08:14:20.278Z,32.62
2022-08-01T08:16:47.859Z,33.10
2022-08-01T08:19:15.504Z,33.60
2022-08-01T08:21:43.085Z,33.68
2022-08-01T08:24:20.528Z,34.12
2022-08-01T08:26:56.003Z,34.28
2022-08-01T08:29:24.352Z,34.58
2022-08-01T08:31:55.869Z,34.95
2022-08-01T08:34:25.716Z,35.35
2022-08-01T08:36:54.197Z,36.13
2022-08-01T08:39:22.128Z,36.26
2022-08-01T08:41:50.354Z,36.26
2022-08-01T08:44:19.014Z,36.00
2022-08-01T08:46:52.708Z,35.59
2022-08-01T08:49:23.919Z,35.38
2022-08-01T08:51:52.723Z,35.19
2022-08-01T08:54:30.955Z,35.09
2022-08-01T08:57:01.439Z,35.34
2022-08-01T08:59:29.621Z,35.31
2022-08-01T09:01:58.462Z,35.82
2022-08-01T09:04:27.594Z,35.92
2022-08-01T09:06:55.889Z,35.86
2022-08-01T09:09:24.490Z,36.37
2022-08-01T09:11:56.722Z,36.91
2022-08-01T09:14:31.043Z,36.80
2022-08-01T09:17:07.804Z,36.48
2022-08-01T09:19:41.897Z,37.07
2022-08-01T09:22:12.888Z,37.46
2022-08-01T09:24:41.689Z,38.31
2022-08-01T09:27:24.336Z,38.74
2022-08-01T09:30:01.556Z,39.05
2022-08-01T09:32:36.040Z,39.55
2022-08-01T09:35:36.420Z,40.33
2022-08-01T09:38:30.135Z,40.79
2022-08-01T09:41:00.180Z,40.40
2022-08-01T09:43:31.942Z,40.02
2022-08-01T09:46:05.393Z,40.09
2022-08-01T09:48:33.795Z,40.35
2022-08-01T09:51:07.345Z,40.29
2022-08-01T09:53:52.385Z,39.06
2022-08-01T09:56:22.967Z,37.15
2022-08-01T09:58:59.337Z,37.07
2022-08-01T10:01:49.758Z,37.46
2022-08-01T10:04:21.940Z,37.18
2022-08-01T10:06:55.508Z,36.65
2022-08-01T10:09:36.074Z,36.36
2022-08-01T10:12:15.437Z,35.99
2022-08-01T10:14:50.715Z,35.95
2022-08-01T10:17:20.412Z,35.73
2022-08-01T10:19:55.707Z,35.85
2022-08-01T10:22:31.095Z,36.12
2022-08-01T10:25:04.536Z,36.30
2022-08-01T10:27:38.432Z,36.62
2022-08-01T10:30:19.770Z,37.03
2022-08-01T10:32:56.217Z,37.66
2022-08-01T10:35:47.349Z,37.94
2022-08-01T10:38:14.269Z,38.24
2022-08-01T10:40:45.977Z,38.59
2022-08-01T10:43:21.186Z,39.32
2022-08-01T10:45:51.414Z,39.91
2022-08-01T10:48:31.286Z,40.10
2022-08-01T10:51:05.147Z,39.68
2022-08-01T10:53:54.815Z,39.11
2022-08-01T10:56:27.188Z,39.14
2022-08-01T10:59:06.321Z,39.42
2022-08-01T11:01:37.517Z,39.75
2022-08-01T11:04:16.407Z,40.55
2022-08-01T11:07:16.533Z,41.61
2022-08-01T11:09:51.445Z,42.29
2022-08-01T11:12:24.744Z,42.44
2022-08-01T11:15:17.187Z,42.54
2022-08-01T11:17:57.140Z,40.84
2022-08-01T11:20:34.561Z,39.82
2022-08-01T11:23:07.017Z,40.15
2022-08-01T11:26:06.606Z,40.47
2022-08-01T11:28:32.664Z,40.94
2022-08-01T11:31:11.086Z,41.72
2022-08-01T11:33:48.631Z,42.35
2022-08-01T11:36:17.105Z,43.40
2022-08-01T11:38:59.902Z,44.37
2022-08-01T11:41:38.204Z,44.51
2022-08-01T11:44:09.244Z,44.71
2022-08-01T11:47:08.698Z,45.16
2022-08-01T11:49:38.842Z,43.38
2022-08-01T11:52:11.246Z,41.07
2022-08-01T11:54:40.324Z,38.92
2022-08-01T11:57:11.209Z,37.20
2022-08-01T12:00:03.969Z,36.03
2022-08-01T12:02:40.895Z,34.64
2022-08-01T12:05:19.355Z,33.77
2022-08-01T12:07:51.378Z,33.15
2022-08-01T12:10:21.113Z,32.63
2022-08-01T12:12:54.055Z,32.06
2022-08-01T12:15:24.108Z,31.62
2022-08-01T12:17:59.730Z,31.24
2022-08-01T12:20:35.772Z,30.90
2022-08-01T12:23:08.808Z,30.64
2022-08-01T12:25:37.400Z,30.38
2022-08-01T12:28:08.537Z,30.08
2022-08-01T12:30:41.827Z,29.82
2022-08-01T12:33:11.592Z,29.63
2022-08-01T12:35:41.872Z,29.46
2022-08-01T12:38:27.977Z,29.38
2022-08-01T12:40:56.739Z,29.06
2022-08-01T12:43:29.412Z,28.91
2022-08-01T12:46:00.381Z,28.69
2022-08-01T12:48:29.278Z,28.57
2022-08-01T12:50:59.253Z,28.34
2022-08-01T12:53:40.257Z,28.12
2022-08-01T12:56:11.605Z,27.94
2022-08-01T12:58:40.101Z,27.82
2022-08-01T13:01:10.928Z,27.59
2022-08-01T13:03:39.847Z,27.45
2022-08-01T13:06:16.606Z,27.31
2022-08-01T13:08:46.352Z,27.11
2022-08-01T13:11:16.858Z,26.87
2022-08-01T13:13:51.042Z,26.76
2022-08-01T13:16:31.035Z,26.70
2022-08-01T13:19:07.138Z,26.57
2022-08-01T13:21:52.830Z,26.49
2022-08-01T13:24:28.192Z,26.51
2022-08-01T13:27:01.608Z,26.56
2022-08-01T13:29:42.404Z,26.71
2022-08-01T13:32:29.035Z,26.74
2022-08-01T13:35:09.607Z,26.71
2022-08-01T13:37:39.318Z,26.65
2022-08-01T13:40:11.983Z,26.67
2022-08-01T13:42:39.811Z,26.61
2022-08-01T13:45:14.205Z,26.62
2022-08-01T13:48:11.859Z,26.69
2022-08-01T13:50:33.571Z,26.73
2022-08-01T13:53:01.343Z,26.67
2022-08-01T13:55:34.653Z,26.49
2022-08-01T13:58:03.950Z,26.37
2022-08-01T14:00:31.831Z,26.42
2022-08-01T14:02:59.334Z,26.38
2022-08-01T14:05:26.955Z,26.37
2022-08-01T14:07:56.197Z,26.38
2022-08-01T14:10:27.164Z,26.38
2022-08-01T14:12:58.741Z,26.36
2022-08-01T14:15:38.268Z,26.38
2022-08-01T14:18:09.668Z,26.33
2022-08-01T14:20:40.918Z,26.24
2022-08-01T14:23:09.680Z,26.20
2022-08-01T14:26:02.914Z,26.10
2022-08-01T14:28:31.190Z,25.99
2022-08-01T14:30:59.111Z,25.98
2022-08-01T14:33:27.566Z,25.89
2022-08-01T14:36:06.234Z,25.81
2022-08-01T14:38:44.388Z,25.71
2022-08-01T14:41:17.635Z,25.67
2022-08-01T14:43:45.810Z,25.61
2022-08-01T14:46:14.247Z,25.55
2022-08-01T14:48:41.885Z,25.56
2022-08-01T14:51:10.071Z,25.50
2022-08-01T14:53:38.623Z,25.49
2022-08-01T14:56:08.108Z,25.52
2022-08-01T14:58:35.814Z,25.59
2022-08-01T15:01:05.544Z,25.58
2022-08-01T15:03:33.219Z,25.52
2022-08-01T15:06:01.424Z,25.51
2022-08-01T15:08:29.613Z,25.50
2022-08-01T15:10:57.768Z,25.49
2022-08-01T15:13:25.362Z,25.48
2022-08-01T15:15:52.854Z,25.43
2022-08-01T15:18:20.405Z,25.45
2022-08-01T15:20:47.989Z,25.38
2022-08-01T15:23:15.560Z,25.47
2022-08-01T15:25:43.038Z,25.38
2022-08-01T15:28:11.446Z,25.37
2022-08-01T15:30:39.795Z,25.34
2022-08-01T15:33:07.445Z,25.28
2022-08-01T15:35:35.115Z,25.27
2022-08-01T15:38:03.250Z,25.21
2022-08-01T15:40:35.764Z,25.19
2022-08-01T15:43:03.857Z,25.14
2022-08-01T15:45:49.413Z,25.13
2022-08-01T15:48:18.285Z,25.13
2022-08-01T15:50:46.001Z,25.15
2022-08-01T15:53:13.628Z,25.08
2022-08-01T15:55:41.278Z,25.08
2022-08-01T15:58:11.514Z,25.03
2022-08-01T16:00:40.037Z,24.91
2022-08-01T16:03:10.268Z,24.92
2022-08-01T16:05:43.542Z,24.89
2022-08-01T16:08:13.305Z,24.81
2022-08-01T16:10:43.566Z,24.75
2022-08-01T16:13:11.672Z,24.75
2022-08-01T16:15:39.646Z,24.72
2022-08-01T16:18:09.447Z,24.71
2022-08-01T16:20:41.522Z,24.65
2022-08-01T16:23:13.013Z,24.66
2022-08-01T16:25:40.619Z,24.57
2022-08-01T16:28:09.990Z,24.57
2022-08-01T16:30:47.958Z,24.48
2022-08-01T16:33:38.891Z,24.45
2022-08-01T16:36:16.751Z,24.51
2022-08-01T16:38:45.668Z,24.32
2022-08-01T16:41:19.627Z,24.30
2022-08-01T16:43:54.193Z,24.22
2022-08-01T16:46:26.945Z,24.18
2022-08-01T16:48:54.853Z,24.18
2022-08-01T16:51:22.938Z,24.11
2022-08-01T16:53:50.460Z,24.07
2022-08-01T16:56:18.080Z,24.06
2022-08-01T16:58:45.708Z,24.03
2022-08-01T17:01:58.541Z,24.01
2022-08-01T17:04:02.048Z,23.96
2022-08-01T17:06:30.355Z,23.90
2022-08-01T17:08:58.831Z,23.85
2022-08-01T17:11:26.672Z,23.78
2022-08-01T17:13:54.223Z,23.72
2022-08-01T17:16:22.184Z,23.71
2022-08-01T17:18:49.868Z,23.63
2022-08-01T17:21:21.618Z,23.61
2022-08-01T17:23:56.208Z,23.57
2022-08-01T17:26:28.418Z,23.52
2022-08-01T17:29:01.038Z,23.47
2022-08-01T17:31:33.872Z,23.42
2022-08-01T17:34:04.820Z,23.38
2022-08-01T17:36:33.986Z,23.28
2022-08-01T17:39:09.495Z,23.27
2022-08-01T17:41:39.509Z,23.24
2022-08-01T17:44:07.796Z,23.20
2022-08-01T17:46:37.524Z,23.11
2022-08-01T17:49:15.308Z,23.13
2022-08-01T17:51:43.345Z,23.05
2022-08-01T17:54:11.697Z,23.05
2022-08-01T17:56:42.973Z,22.95
2022-08-01T17:59:13.207Z,22.96
2022-08-01T18:01:45.347Z,22.93
2022-08-01T18:04:13.140Z,22.89
2022-08-01T18:06:58.206Z,22.84
2022-08-01T18:09:26.503Z,22.76
2022-08-01T18:11:54.059Z,22.73
2022-08-01T18:14:21.864Z,22.69
2022-08-01T18:17:11.238Z,22.69
2022-08-01T18:19:40.380Z,22.62
2022-08-01T18:22:31.290Z,22.59
2022-08-01T18:24:56.308Z,22.57
2022-08-01T18:27:23.755Z,22.52
2022-08-01T18:30:11.625Z,22.50
2022-08-01T18:32:39.198Z,22.43
2022-08-01T18:35:14.237Z,22.45
2022-08-01T18:37:47.116Z,22.41
2022-08-01T18:40:23.518Z,22.32
2022-08-01T18:42:51.173Z,22.31
2022-08-01T18:45:19.028Z,22.27
2022-08-01T18:47:48.428Z,22.19
2022-08-01T18:50:16.115Z,22.17
2022-08-01T18:52:43.664Z,22.19
2022-08-01T18:55:13.650Z,22.13
2022-08-01T18:57:42.768Z,22.10
2022-08-01T19:00:11.540Z,22.13
2022-08-01T19:02:39.115Z,22.07
2022-08-01T19:05:07.020Z,22.09
2022-08-01T19:08:05.126Z,22.01
2022-08-01T19:10:24.723Z,22.00
2022-08-01T19:12:52.390Z,21.90
2022-08-01T19:15:19.933Z,21.86
2022-08-01T19:17:47.577Z,21.87
2022-08-01T19:20:15.072Z,21.82
2022-08-01T19:22:42.682Z,21.76
2022-08-01T19:25:10.383Z,21.78
2022-08-01T19:27:44.379Z,21.78
2022-08-01T19:30:12.417Z,21.75
2022-08-01T19:32:42.933Z,21.71
2022-08-01T19:35:12.910Z,21.65
2022-08-01T19:37:45.756Z,21.63
2022-08-01T19:40:27.076Z,21.66
2022-08-01T19:42:56.830Z,21.61
2022-08-01T19:45:29.414Z,21.58
2022-08-01T19:47:58.039Z,21.55
2022-08-01T19:50:27.215Z,21.47
2022-08-01T19:52:57.692Z,21.44
2022-08-01T19:55:27.095Z,21.38
2022-08-01T19:58:24.637Z,21.37
2022-08-01T20:00:44.790Z,21.30
2022-08-01T20:03:15.170Z,21.31
2022-08-01T20:05:43.651Z,21.23
2022-08-01T20:08:12.240Z,21.24
2022-08-01T20:10:40.953Z,21.23
2022-08-01T20:13:11.043Z,21.15
2022-08-01T20:15:39.264Z,21.17
2022-08-01T20:18:07.458Z,21.16
2022-08-01T20:20:36.866Z,21.14
2022-08-01T20:23:10.650Z,21.08
2022-08-01T20:25:49.659Z,21.11
2022-08-01T20:28:23.159Z,21.08
2022-08-01T20:30:54.902Z,21.12
2022-08-01T20:33:22.748Z,21.06
2022-08-01T20:35:54.069Z,21.10
2022-08-01T20:38:24.452Z,21.06
2022-08-01T20:40:59.350Z,21.11
2022-08-01T20:43:28.001Z,21.06
2022-08-01T20:45:56.655Z,21.02
2022-08-01T20:48:28.151Z,21.05
2022-08-01T20:51:14.626Z,21.02
2022-08-01T20:53:49.278Z,20.98
2022-08-01T20:56:39.507Z,20.93
2022-08-01T20:59:06.971Z,20.94
2022-08-01T21:01:40.452Z,20.85
2022-08-01T21:04:26.050Z,20.89
2022-08-01T21:07:14.016Z,20.87
2022-08-01T21:09:42.879Z,20.78
2022-08-01T21:12:20.743Z,20.70
2022-08-01T21:15:01.244Z,20.74
2022-08-01T21:17:45.423Z,20.68
2022-08-01T21:20:14.707Z,20.64
2022-08-01T21:22:48.416Z,20.62
2022-08-01T21:25:21.321Z,20.59
2022-08-01T21:27:51.817Z,20.58
2022-08-01T21:30:19.791Z,20.52
2022-08-01T21:32:49.063Z,20.46
2022-08-01T21:35:20.982Z,20.49
2022-08-01T21:37:52.698Z,20.46
2022-08-01T21:40:22.869Z,20.46
2022-08-01T21:42:53.398Z,20.44
2022-08-01T21:45:23.958Z,20.42
2022-08-01T21:47:52.788Z,20.41
2022-08-01T21:50:20.858Z,20.39
2022-08-01T21:52:50.780Z,20.36
2022-08-01T21:55:35.706Z,20.31
2022-08-01T21:58:27.853Z,20.37
2022-08-01T22:01:13.742Z,20.31
2022-08-01T22:03:49.006Z,20.29
2022-08-01T22:06:20.320Z,20.25
2022-08-01T22:08:53.174Z,20.25
2022-08-01T22:11:31.023Z,20.24
2022-08-01T22:14:01.985Z,20.17
2022-08-01T22:16:32.281Z,20.22
2022-08-01T22:19:03.399Z,20.22
2022-08-01T22:21:31.589Z,20.19
2022-08-01T22:23:59.830Z,20.11
2022-08-01T22:26:29.929Z,20.13
2022-08-01T22:28:58.744Z,20.14
2022-08-01T22:31:26.331Z,20.12
2022-08-01T22:33:54.644Z,20.09
2022-08-01T22:36:22.563Z,20.05
2022-08-01T22:38:50.277Z,20.01
2022-08-01T22:41:21.806Z,19.95
2022-08-01T22:44:17.892Z,20.06
2022-08-01T22:47:07.128Z,20.02
2022-08-01T22:49:40.736Z,19.93
2022-08-01T22:52:17.940Z,19.94
2022-08-01T22:55:06.591Z,19.93
2022-08-01T22:57:58.357Z,19.96
2022-08-01T23:00:32.234Z,19.88
2022-08-01T23:03:07.687Z,19.87
2022-08-01T23:05:41.179Z,19.78
2022-08-01T23:08:16.156Z,19.77
2022-08-01T23:10:44.225Z,19.79
2022-08-01T23:13:14.585Z,19.73
2022-08-01T23:15:44.321Z,19.73
2022-08-01T23:18:21.318Z,19.84
2022-08-01T23:20:50.536Z,19.74
2022-08-01T23:23:19.208Z,19.69
2022-08-01T23:26:00.365Z,19.64
2022-08-01T23:28:29.244Z,19.60
2022-08-01T23:30:59.061Z,19.57
2022-08-01T23:33:26.567Z,19.52
2022-08-01T23:35:54.617Z,19.48
2022-08-01T23:38:22.172Z,19.48
2022-08-01T23:40:51.039Z,19.46
2022-08-01T23:43:21.357Z,19.48
2022-08-01T23:46:03.475Z,19.45
2022-08-01T23:48:34.560Z,19.35
2022-08-01T23:51:02.879Z,19.36
2022-08-01T23:53:31.383Z,19.32
2022-08-01T23:56:01.718Z,19.26
2022-08-01T23:58:30.871Z,19.24
